createdAt,value
2022-11-02T00:00:20.646Z,0.60
2022-11-02T00:02:48.856Z,0.70
2022-11-02T00:05:23.868Z,1.10
2022-11-02T00:07:54.789Z,0.90
2022-11-02T00:10:24.367Z,0.90
2022-11-02T00:12:53.417Z,1.00
2022-11-02T00:15:21.675Z,1.10
2022-11-02T00:17:54.515Z,2.23
2022-11-02T00:20:23.414Z,0.70
2022-11-02T00:22:57.438Z,1.00
2022-11-02T00:25:26.875Z,1.00
2022-11-02T00:27:55.178Z,1.77
2022-11-02T00:30:23.604Z,1.20
2022-11-02T00:32:52.238Z,1.37
2022-11-02T00:35:20.573Z,1.10
2022-11-02T00:37:48.797Z,1.00
2022-11-02T00:40:18.766Z,1.60
2022-11-02T00:42:46.980Z,1.30
2022-11-02T00:45:15.267Z,1.33
2022-11-02T00:47:43.478Z,0.83
2022-11-02T00:50:11.709Z,1.13
2022-11-02T00:52:40.689Z,1.13
2022-11-02T00:55:10.394Z,1.20
2022-11-02T00:57:41.216Z,1.53
2022-11-02T01:00:11.770Z,0.83
2022-11-02T01:02:40.558Z,1.27
2022-11-02T01:05:10.283Z,1.50
2022-11-02T01:07:38.845Z,1.30
2022-11-02T01:10:07.954Z,1.17
2022-11-02T01:12:39.764Z,1.60
2022-11-02T01:15:10.580Z,1.07
2022-11-02T01:17:39.373Z,1.90
2022-11-02T01:20:08.680Z,1.10
2022-11-02T01:22:37.127Z,0.90
2022-11-02T01:25:06.184Z,0.90
2022-11-02T01:27:34.404Z,1.43
2022-11-02T01:30:04.428Z,1.17
2022-11-02T01:32:32.737Z,1.30
2022-11-02T01:35:01.048Z,1.17
2022-11-02T01:37:29.274Z,1.23
2022-11-02T01:39:57.558Z,1.10
2022-11-02T01:42:28.182Z,0.90
2022-11-02T01:44:56.377Z,1.53
2022-11-02T01:47:29.065Z,1.73
2022-11-02T01:50:00.828Z,0.90
2022-11-02T01:52:34.373Z,2.10
2022-11-02T01:55:08.629Z,1.10
2022-11-02T01:57:38.133Z,1.13
2022-11-02T02:00:09.035Z,1.00
2022-11-02T02:02:46.984Z,1.43
2022-11-02T02:05:17.746Z,1.57
2022-11-02T02:07:46.625Z,1.27
2022-11-02T02:10:15.088Z,0.80
2022-11-02T02:12:44.634Z,1.07
2022-11-02T02:15:14.023Z,1.60
2022-11-02T02:17:51.068Z,1.03
2022-11-02T02:20:47.724Z,1.20
2022-11-02T02:23:44.316Z,1.50
2022-11-02T02:26:42.388Z,1.07
2022-11-02T02:29:17.598Z,1.33
2022-11-02T02:31:54.470Z,1.50
2022-11-02T02:34:27.816Z,1.20
2022-11-02T02:37:00.785Z,1.30
2022-11-02T02:39:37.568Z,0.87
2022-11-02T02:42:13.327Z,0.70
2022-11-02T02:44:47.912Z,1.03
2022-11-02T02:47:21.573Z,1.60
2022-11-02T02:49:54.864Z,1.17
2022-11-02T02:52:25.347Z,1.37
2022-11-02T02:54:57.144Z,1.20
2022-11-02T02:57:29.198Z,0.87
2022-11-02T02:59:59.034Z,1.50
2022-11-02T03:02:31.940Z,1.73
2022-11-02T03:05:00.439Z,1.33
2022-11-02T03:07:33.837Z,0.87
2022-11-02T03:10:13.304Z,1.50
2022-11-02T03:12:52.488Z,1.80
2022-11-02T03:15:27.891Z,1.77
2022-11-02T03:18:05.770Z,1.60
2022-11-02T03:20:44.798Z,0.93
2022-11-02T03:23:19.334Z,1.43
2022-11-02T03:25:58.204Z,1.67
2022-11-02T03:28:38.427Z,2.27
2022-11-02T03:31:13.174Z,1.37
2022-11-02T03:33:47.977Z,1.53
2022-11-02T03:36:21.745Z,2.37
2022-11-02T03:38:54.482Z,1.43
2022-11-02T03:41:26.007Z,1.10
2022-11-02T03:43:59.806Z,1.27
2022-11-02T03:46:31.328Z,1.23
2022-11-02T03:49:05.949Z,1.57
2022-11-02T03:51:41.426Z,1.53
2022-11-02T03:54:16.085Z,1.70
2022-11-02T03:56:47.982Z,1.47
2022-11-02T03:59:16.478Z,1.23
2022-11-02T04:01:49.105Z,1.70
2022-11-02T04:04:17.950Z,1.87
2022-11-02T04:06:49.398Z,0.93
2022-11-02T04:09:18.727Z,1.50
2022-11-02T04:12:04.288Z,0.83
2022-11-02T04:14:41.614Z,1.47
2022-11-02T04:19:59.527Z,0.83
2022-11-02T04:22:45.445Z,0.87
2022-11-02T04:25:22.448Z,1.13
2022-11-02T04:27:52.389Z,1.33
2022-11-02T04:30:22.837Z,0.87
2022-11-02T04:33:10.095Z,1.67
2022-11-02T04:35:38.674Z,1.87
2022-11-02T04:38:24.489Z,1.77
2022-11-02T04:41:13.088Z,0.80
2022-11-02T04:43:41.634Z,1.60
2022-11-02T04:46:09.824Z,0.70
2022-11-02T04:48:39.523Z,1.13
2022-11-02T04:51:07.991Z,1.27
2022-11-02T04:53:36.409Z,1.17
2022-11-02T04:56:04.828Z,1.03
2022-11-02T04:58:33.075Z,0.63
2022-11-02T05:01:06.348Z,0.93
2022-11-02T05:03:34.603Z,1.03
2022-11-02T05:06:04.545Z,0.57
2022-11-02T05:08:32.805Z,1.00
2022-11-02T05:11:01.409Z,0.93
2022-11-02T05:13:29.934Z,1.53
2022-11-02T05:15:58.657Z,1.50
2022-11-02T05:18:28.543Z,1.47
2022-11-02T05:20:59.068Z,1.23
2022-11-02T05:23:29.826Z,1.20
2022-11-02T05:25:59.935Z,1.00
2022-11-02T05:28:29.470Z,0.77
2022-11-02T05:31:00.557Z,1.30
2022-11-02T05:33:30.943Z,0.70
2022-11-02T05:36:00.214Z,1.37
2022-11-02T05:38:30.415Z,1.13
2022-11-02T05:40:59.986Z,1.10
2022-11-02T05:43:28.529Z,0.80
2022-11-02T05:45:58.512Z,1.20
2022-11-02T05:48:28.681Z,1.67
2022-11-02T05:50:57.910Z,1.60
2022-11-02T05:53:26.908Z,0.93
2022-11-02T05:55:59.288Z,1.23
2022-11-02T05:58:28.125Z,0.97
2022-11-02T06:00:56.537Z,1.17
2022-11-02T06:03:24.756Z,1.10
2022-11-02T06:05:58.017Z,0.90
2022-11-02T06:08:26.334Z,1.33
2022-11-02T06:10:54.854Z,1.40
2022-11-02T06:13:24.564Z,1.33
2022-11-02T06:15:52.899Z,0.97
2022-11-02T06:18:21.139Z,0.97
2022-11-02T06:20:49.409Z,0.60
2022-11-02T06:23:18.470Z,1.23
2022-11-02T06:25:52.564Z,1.00
2022-11-02T06:28:21.427Z,1.13
2022-11-02T06:30:51.674Z,0.70
2022-11-02T06:33:21.019Z,0.60
2022-11-02T06:35:50.877Z,1.20
2022-11-02T06:38:19.696Z,1.13
2022-11-02T06:40:55.459Z,0.90
2022-11-02T06:43:24.223Z,0.80
2022-11-02T06:45:56.077Z,1.23
2022-11-02T06:48:26.513Z,0.80
2022-11-02T06:50:57.076Z,0.90
2022-11-02T06:53:25.664Z,1.30
2022-11-02T06:55:54.935Z,2.27
2022-11-02T06:58:24.304Z,1.57
2022-11-02T07:00:59.679Z,1.47
2022-11-02T07:03:28.824Z,1.03
2022-11-02T07:05:57.106Z,1.50
2022-11-02T07:08:26.294Z,1.30
2022-11-02T07:10:54.609Z,1.00
2022-11-02T07:13:22.911Z,1.30
2022-11-02T07:15:54.612Z,1.63
2022-11-02T07:18:23.166Z,1.47
2022-11-02T07:20:51.757Z,1.10
2022-11-02T07:23:23.987Z,1.63
2022-11-02T07:25:52.717Z,1.80
2022-11-02T07:28:21.077Z,1.37
2022-11-02T07:30:49.492Z,1.37
2022-11-02T07:33:19.215Z,2.70
2022-11-02T07:35:47.527Z,2.07
2022-11-02T07:38:15.981Z,2.43
2022-11-02T07:40:44.204Z,2.37
2022-11-02T07:43:12.693Z,2.30
2022-11-02T07:45:41.012Z,2.30
2022-11-02T07:48:09.312Z,1.70
2022-11-02T07:50:38.955Z,2.43
2022-11-02T07:53:07.524Z,2.40
2022-11-02T07:55:36.230Z,2.83
2022-11-02T07:58:08.166Z,1.70
2022-11-02T08:00:38.645Z,2.33
2022-11-02T08:03:09.015Z,1.87
2022-11-02T08:05:40.722Z,2.67
2022-11-02T08:08:12.159Z,2.90
2022-11-02T08:10:40.812Z,2.63
2022-11-02T08:13:09.803Z,2.40
2022-11-02T08:15:38.358Z,1.93
2022-11-02T08:18:08.562Z,2.30
2022-11-02T08:20:39.051Z,2.83
2022-11-02T08:23:07.952Z,2.00
2022-11-02T08:25:36.624Z,2.53
2022-11-02T08:28:06.870Z,2.43
2022-11-02T08:30:35.814Z,2.20
2022-11-02T08:33:05.755Z,2.83
2022-11-02T08:35:34.980Z,2.03
2022-11-02T08:38:05.935Z,1.88
2022-11-02T08:40:34.906Z,2.70
2022-11-02T08:43:04.776Z,2.40
2022-11-02T08:46:00.561Z,1.98
2022-11-02T08:48:22.856Z,1.45
2022-11-02T08:50:51.268Z,1.92
2022-11-02T08:53:20.922Z,2.00
2022-11-02T08:55:49.330Z,2.63
2022-11-02T08:58:18.813Z,2.08
2022-11-02T09:00:47.175Z,1.70
2022-11-02T09:03:20.673Z,2.38
2022-11-02T09:05:57.482Z,2.50
2022-11-02T09:08:29.709Z,2.10
2022-11-02T09:11:02.121Z,2.17
2022-11-02T09:13:31.286Z,2.50
2022-11-02T09:16:03.058Z,2.45
2022-11-02T09:18:33.089Z,2.33
2022-11-02T09:21:04.742Z,2.75
2022-11-02T09:23:37.101Z,3.58
2022-11-02T09:26:06.692Z,2.10
2022-11-02T09:28:36.478Z,1.95
2022-11-02T09:31:09.037Z,1.40
2022-11-02T09:33:40.169Z,2.67
2022-11-02T09:36:09.051Z,2.53
2022-11-02T09:38:38.751Z,1.35
2022-11-02T09:41:14.938Z,1.42
2022-11-02T09:43:54.565Z,2.47
2022-11-02T09:46:27.584Z,1.33
2022-11-02T09:48:59.440Z,2.45
2022-11-02T09:51:31.160Z,1.85
2022-11-02T09:54:11.560Z,1.63
2022-11-02T09:56:45.881Z,1.63
2022-11-02T09:59:16.743Z,1.63
2022-11-02T10:02:02.779Z,2.35
2022-11-02T10:05:04.679Z,1.27
2022-11-02T10:07:53.733Z,1.45
2022-11-02T10:10:33.541Z,1.77
2022-11-02T10:13:14.334Z,1.30
2022-11-02T10:15:48.005Z,1.63
2022-11-02T10:18:25.729Z,1.77
2022-11-02T10:20:57.595Z,1.45
2022-11-02T10:23:31.415Z,1.20
2022-11-02T10:26:02.334Z,1.65
2022-11-02T10:28:34.361Z,1.65
2022-11-02T10:31:03.705Z,1.30
2022-11-02T10:33:32.633Z,1.67
2022-11-02T10:36:18.913Z,1.40
2022-11-02T10:39:02.550Z,1.40
2022-11-02T10:41:45.672Z,1.80
2022-11-02T10:44:32.928Z,1.40
2022-11-02T10:47:10.460Z,1.63
2022-11-02T10:50:12.559Z,1.30
2022-11-02T10:52:43.731Z,1.13
2022-11-02T10:55:31.175Z,1.42
2022-11-02T10:58:02.450Z,1.00
2022-11-02T11:00:33.284Z,1.13
2022-11-02T11:03:10.020Z,1.00
2022-11-02T11:05:45.569Z,1.92
2022-11-02T11:08:30.415Z,1.30
2022-11-02T11:11:11.800Z,0.80
2022-11-02T11:16:40.695Z,2.03
2022-11-02T11:22:23.737Z,1.00
2022-11-02T11:24:52.030Z,0.85
2022-11-02T11:27:21.695Z,1.48
2022-11-02T11:29:55.355Z,0.80
2022-11-02T11:32:29.887Z,1.23
2022-11-02T11:35:02.259Z,1.30
2022-11-02T11:37:31.266Z,1.15
2022-11-02T11:40:02.654Z,0.98
2022-11-02T11:42:35.428Z,0.40
2022-11-02T11:45:07.379Z,0.93
2022-11-02T11:47:38.195Z,0.80
2022-11-02T11:50:12.936Z,0.88
2022-11-02T11:53:11.715Z,0.80
2022-11-02T11:55:48.761Z,1.77
2022-11-02T11:58:22.396Z,0.63
2022-11-02T12:01:20.251Z,1.08
2022-11-02T12:03:53.853Z,0.88
2022-11-02T12:06:31.178Z,0.75
2022-11-02T12:09:05.151Z,0.80
2022-11-02T12:11:50.034Z,0.98
2022-11-02T12:14:31.247Z,1.25
2022-11-02T12:17:22.607Z,0.90
2022-11-02T12:20:04.827Z,1.02
2022-11-02T12:22:42.698Z,1.17
2022-11-02T12:25:28.969Z,0.90
2022-11-02T12:28:09.294Z,1.02
2022-11-02T12:30:51.407Z,0.65
2022-11-02T12:33:37.439Z,0.77
2022-11-02T12:36:13.873Z,0.75
2022-11-02T12:38:54.229Z,0.45
2022-11-02T12:41:37.296Z,0.80
2022-11-02T12:44:17.180Z,0.70
2022-11-02T12:46:53.886Z,1.08
2022-11-02T12:49:37.759Z,0.70
2022-11-02T12:52:18.875Z,0.85
2022-11-02T12:54:49.416Z,0.70
2022-11-02T12:57:21.895Z,0.95
2022-11-02T12:59:55.105Z,0.50
2022-11-02T13:02:30.360Z,0.60
2022-11-02T13:05:04.603Z,0.63
2022-11-02T13:07:38.574Z,0.98
2022-11-02T13:10:15.557Z,0.63
2022-11-02T13:12:46.223Z,0.70
2022-11-02T13:15:17.600Z,1.00
2022-11-02T13:17:48.206Z,0.85
2022-11-02T13:20:22.605Z,0.60
2022-11-02T13:22:58.348Z,0.47
2022-11-02T13:25:33.057Z,0.55
2022-11-02T13:28:07.596Z,0.75
2022-11-02T13:30:36.769Z,0.68
2022-11-02T13:33:12.748Z,0.60
2022-11-02T13:35:43.481Z,0.50
2022-11-02T13:38:29.591Z,1.23
2022-11-02T13:41:15.881Z,0.70
2022-11-02T13:44:11.060Z,0.93
2022-11-02T13:46:54.688Z,0.50
2022-11-02T13:49:31.399Z,0.85
2022-11-02T13:52:05.030Z,0.77
2022-11-02T13:54:40.309Z,0.60
2022-11-02T13:57:33.754Z,0.60
2022-11-02T14:00:03.328Z,0.40
2022-11-02T14:02:36.316Z,0.57
2022-11-02T14:05:05.128Z,0.60
2022-11-02T14:07:40.165Z,1.35
2022-11-02T14:10:16.482Z,0.40
2022-11-02T14:12:46.035Z,0.50
2022-11-02T14:15:42.537Z,0.70
2022-11-02T14:18:16.134Z,0.55
2022-11-02T14:20:46.757Z,0.30
2022-11-02T14:23:43.724Z,0.70
2022-11-02T14:26:54.915Z,0.57
2022-11-02T14:29:49.375Z,0.50
2022-11-02T14:32:31.128Z,0.57
2022-11-02T14:35:15.583Z,0.85
2022-11-02T14:38:08.729Z,1.52
2022-11-02T14:40:49.445Z,1.23
2022-11-02T14:43:51.412Z,0.65
2022-11-02T14:46:36.825Z,1.00
2022-11-02T14:49:07.157Z,0.60
2022-11-02T14:51:39.395Z,0.77
2022-11-02T14:54:18.052Z,1.10
2022-11-02T14:56:55.357Z,0.70
2022-11-02T14:59:29.180Z,0.82
2022-11-02T15:02:00.691Z,0.70
2022-11-02T15:04:30.715Z,0.43
2022-11-02T15:07:02.660Z,0.50
2022-11-02T15:09:57.922Z,0.70
2022-11-02T15:12:41.091Z,0.70
2022-11-02T15:15:32.156Z,0.60
2022-11-02T15:18:15.314Z,0.95
2022-11-02T15:20:46.453Z,0.75
2022-11-02T15:23:31.783Z,0.77
2022-11-02T15:26:01.316Z,0.82
2022-11-02T15:28:36.439Z,0.70
2022-11-02T15:31:14.376Z,1.13
2022-11-02T15:33:45.811Z,1.58
2022-11-02T15:36:19.064Z,0.80
2022-11-02T15:38:51.446Z,0.47
2022-11-02T15:41:29.075Z,0.60
2022-11-02T15:44:27.642Z,0.80
2022-11-02T15:47:06.579Z,0.73
2022-11-02T15:49:59.702Z,0.75
2022-11-02T15:53:16.495Z,0.70
2022-11-02T15:55:47.564Z,1.00
2022-11-02T15:58:29.006Z,0.68
2022-11-02T16:01:14.492Z,0.90
2022-11-02T16:03:46.616Z,0.50
2022-11-02T16:06:15.705Z,0.98
2022-11-02T16:08:44.955Z,0.60
2022-11-02T16:11:17.776Z,0.65
2022-11-02T16:14:07.924Z,0.85
2022-11-02T16:16:48.105Z,1.02
2022-11-02T16:19:20.874Z,0.77
2022-11-02T16:21:50.624Z,0.60
2022-11-02T16:24:19.668Z,1.20
2022-11-02T16:26:49.558Z,0.47
2022-11-02T16:29:28.665Z,0.63
2022-11-02T16:31:58.884Z,0.70
2022-11-02T16:34:31.589Z,0.52
2022-11-02T16:37:08.947Z,1.27
2022-11-02T16:39:42.286Z,1.52
2022-11-02T16:42:16.943Z,0.77
2022-11-02T16:44:56.555Z,1.20
2022-11-02T16:47:39.125Z,0.52
2022-11-02T16:50:21.195Z,0.98
2022-11-02T16:52:56.858Z,0.75
2022-11-02T16:55:39.559Z,0.90
2022-11-02T16:58:14.341Z,0.52
2022-11-02T17:00:55.961Z,0.50
2022-11-02T17:03:31.186Z,0.68
2022-11-02T17:06:01.889Z,1.17
2022-11-02T17:08:36.762Z,0.70
2022-11-02T17:11:07.065Z,0.88
2022-11-02T17:13:38.882Z,0.77
2022-11-02T17:16:10.737Z,1.25
2022-11-02T17:18:40.476Z,0.65
2022-11-02T17:21:25.565Z,0.57
2022-11-02T17:23:55.164Z,0.55
2022-11-02T17:26:32.779Z,0.55
2022-11-02T17:29:02.484Z,0.50
2022-11-02T17:31:34.603Z,0.43
2022-11-02T17:34:10.516Z,0.90
2022-11-02T17:36:43.824Z,0.65
2022-11-02T17:39:14.136Z,1.45
2022-11-02T17:42:00.123Z,0.70
2022-11-02T17:44:28.871Z,1.58
2022-11-02T17:47:00.033Z,1.95
2022-11-02T17:49:30.889Z,1.13
2022-11-02T17:52:00.385Z,2.05
2022-11-02T17:54:29.999Z,1.10
2022-11-02T17:56:58.438Z,1.00
2022-11-02T17:59:27.149Z,0.80
2022-11-02T18:01:57.939Z,1.00
2022-11-02T18:04:31.268Z,1.23
2022-11-02T18:07:02.719Z,1.45
2022-11-02T18:09:33.622Z,1.10
2022-11-02T18:12:02.882Z,1.08
2022-11-02T18:14:32.729Z,1.60
2022-11-02T18:17:04.809Z,1.42
2022-11-02T18:19:36.215Z,1.48
2022-11-02T18:22:07.809Z,1.73
2022-11-02T18:24:37.999Z,2.47
2022-11-02T18:27:07.880Z,0.88
2022-11-02T18:29:38.451Z,1.65
2022-11-02T18:32:09.017Z,1.38
2022-11-02T18:34:38.894Z,1.05
2022-11-02T18:37:11.427Z,0.87
2022-11-02T18:39:42.299Z,1.10
2022-11-02T18:42:12.577Z,1.23
2022-11-02T18:44:43.107Z,0.82
2022-11-02T18:47:13.937Z,0.60
2022-11-02T18:49:47.146Z,0.95
2022-11-02T18:52:22.229Z,1.20
2022-11-02T18:54:56.977Z,1.25
2022-11-02T18:57:28.204Z,1.42
2022-11-02T18:59:58.326Z,0.90
2022-11-02T19:02:30.273Z,0.88
2022-11-02T19:05:02.274Z,1.13
2022-11-02T19:07:50.957Z,1.00
2022-11-02T19:10:21.125Z,0.77
2022-11-02T19:12:53.364Z,1.40
2022-11-02T19:15:23.843Z,1.23
2022-11-02T19:17:52.744Z,1.50
2022-11-02T19:20:22.403Z,1.30
2022-11-02T19:23:00.340Z,1.40
2022-11-02T19:25:29.693Z,1.42
2022-11-02T19:27:59.223Z,1.65
2022-11-02T19:30:28.678Z,1.10
2022-11-02T19:33:02.061Z,0.98
2022-11-02T19:35:31.583Z,0.40
2022-11-02T19:38:02.334Z,0.57
2022-11-02T19:40:33.698Z,0.20
2022-11-02T19:43:03.708Z,0.23
2022-11-02T19:45:33.675Z,0.50
2022-11-02T19:48:04.763Z,0.70
2022-11-02T19:50:34.783Z,0.23
2022-11-02T19:53:05.172Z,0.10
2022-11-02T19:55:34.640Z,0.10
2022-11-02T19:58:04.345Z,0.20
2022-11-02T20:00:33.613Z,0.20
2022-11-02T20:03:03.126Z,0.10
2022-11-02T20:05:44.435Z,0.13
2022-11-02T20:08:16.065Z,0.23
2022-11-02T20:10:45.787Z,0.10
2022-11-02T20:13:14.285Z,0.23
2022-11-02T20:15:43.896Z,0.20
2022-11-02T20:18:19.520Z,0.10
2022-11-02T20:20:49.429Z,0.38
2022-11-02T20:23:20.519Z,0.30
2022-11-02T20:25:50.449Z,0.10
2022-11-02T20:28:20.864Z,0.27
2022-11-02T20:30:51.624Z,0.10
2022-11-02T20:33:21.157Z,0.30
2022-11-02T20:35:51.128Z,0.30
2022-11-02T20:38:22.625Z,0.10
2022-11-02T20:40:52.102Z,0.10
2022-11-02T20:43:22.263Z,0.10
2022-11-02T20:46:31.480Z,0.10
2022-11-02T20:48:53.155Z,0.10
2022-11-02T20:51:23.553Z,0.17
2022-11-02T20:53:54.392Z,0.10
2022-11-02T20:56:25.359Z,0.27
2022-11-02T20:58:55.829Z,0.30
2022-11-02T21:01:24.925Z,0.10
2022-11-02T21:03:54.192Z,0.10
2022-11-02T21:06:22.817Z,0.60
2022-11-02T21:08:52.482Z,0.10
2022-11-02T21:11:38.445Z,0.10
2022-11-02T21:14:07.202Z,0.03
2022-11-02T21:16:36.364Z,0.20
2022-11-02T21:19:05.411Z,0.20
2022-11-02T21:21:34.207Z,0.47
2022-11-02T21:24:05.492Z,0.00
2022-11-02T21:26:36.167Z,0.30
2022-11-02T21:29:04.938Z,0.10
2022-11-02T21:31:33.864Z,0.10
2022-11-02T21:34:02.488Z,0.17
2022-11-02T21:36:31.644Z,0.03
2022-11-02T21:38:59.995Z,0.10
2022-11-02T21:41:30.755Z,0.20
2022-11-02T21:44:00.335Z,0.10
2022-11-02T21:46:28.700Z,0.10
2022-11-02T21:48:57.244Z,0.10
2022-11-02T21:51:25.774Z,0.10
2022-11-02T21:53:54.658Z,0.10
2022-11-02T21:56:25.792Z,0.07
2022-11-02T21:58:56.482Z,0.40
2022-11-02T22:01:45.030Z,0.10
2022-11-02T22:04:15.214Z,0.10
2022-11-02T22:06:43.739Z,0.10
2022-11-02T22:09:13.794Z,0.10
2022-11-02T22:11:42.935Z,0.20
2022-11-02T22:14:12.301Z,0.10
2022-11-02T22:16:42.006Z,0.03
2022-11-02T22:19:12.069Z,0.07
2022-11-02T22:21:42.440Z,0.10
2022-11-02T22:24:11.592Z,0.10
2022-11-02T22:26:41.150Z,0.10
2022-11-02T22:29:10.384Z,0.10
2022-11-02T22:31:41.868Z,0.10
2022-11-02T22:34:12.594Z,0.10
2022-11-02T22:36:42.307Z,0.30
2022-11-02T22:39:12.711Z,0.10
2022-11-02T22:41:43.004Z,0.10
2022-11-02T22:44:13.335Z,0.07
2022-11-02T22:46:45.034Z,0.10
2022-11-02T22:49:14.637Z,0.60
2022-11-02T22:51:45.328Z,0.73
2022-11-02T22:54:15.814Z,0.10
2022-11-02T22:56:44.463Z,0.20
2022-11-02T22:59:13.351Z,0.13
2022-11-02T23:01:43.287Z,0.10
2022-11-02T23:04:12.989Z,0.20
2022-11-02T23:06:41.455Z,0.10
2022-11-02T23:09:12.174Z,0.20
2022-11-02T23:11:40.529Z,0.23
2022-11-02T23:14:10.569Z,0.30
2022-11-02T23:16:40.588Z,0.30
2022-11-02T23:19:23.585Z,0.20
2022-11-02T23:22:09.077Z,0.30
2022-11-02T23:24:54.839Z,0.10
2022-11-02T23:27:23.178Z,0.10
2022-11-02T23:30:09.480Z,0.30
2022-11-02T23:32:38.635Z,0.73
2022-11-02T23:35:26.353Z,0.10
2022-11-02T23:38:03.993Z,0.10
2022-11-02T23:40:33.405Z,0.17
2022-11-02T23:43:01.675Z,0.23
2022-11-02T23:45:29.945Z,0.40
2022-11-02T23:47:58.212Z,0.13
2022-11-02T23:50:47.412Z,0.20
2022-11-02T23:53:34.333Z,0.10
2022-11-02T23:56:20.403Z,0.10
2022-11-02T23:58:48.739Z,0.10
